Time;durP1;ratioP1;P1;durP2;ratioP2;P2;SDS_P1;SDS_P2;PMS_P1;PMS_P2;Temp;Humidity;BMP_temperature;BMP_pressure;BME280_temperature;BME280_humidity;BME280_pressure;Samples;Min_cycle;Max_cycle;Signal;HPM_P1;HPM_P2
2023/11/03 00:01:11;;;;;;;2.60;0.70;;;11.20;99.90;;;;;;9980408;28;20080;-76
2023/11/03 00:06:03;;;;;;;1.02;0.50;;;11.00;99.90;;;;;;9986445;28;20018;-76
2023/11/03 00:10:54;;;;;;;2.08;1.10;;;11.00;99.90;;;;;;9972356;28;20086;-71
2023/11/03 00:15:45;;;;;;;3.47;0.70;;;10.90;99.90;;;;;;9957135;28;20034;-76
2023/11/03 00:20:36;;;;;;;1.45;0.82;;;10.90;99.90;;;;;;9968488;28;20073;-76
2023/11/03 00:25:26;;;;;;;1.35;0.80;;;10.90;99.90;;;;;;9979871;28;20347;-76
2023/11/03 00:30:17;;;;;;;1.88;0.95;;;10.90;99.90;;;;;;9979464;28;20070;-75
2023/11/03 00:35:08;;;;;;;2.35;0.63;;;10.80;99.90;;;;;;9977790;28;20026;-76
2023/11/03 00:39:59;;;;;;;1.50;0.65;;;10.80;99.90;;;;;;9962651;28;20023;-81
2023/11/03 00:44:50;;;;;;;2.58;0.90;;;10.90;99.90;;;;;;9949204;28;20425;-80
2023/11/03 00:49:40;;;;;;;1.48;0.68;;;10.90;99.90;;;;;;9974397;28;20035;-80
2023/11/03 00:54:31;;;;;;;1.75;0.82;;;10.90;99.90;;;;;;9974019;28;20050;-77
2023/11/03 00:59:21;;;;;;;2.72;0.80;;;10.90;99.90;;;;;;9971005;28;20034;-74
2023/11/03 01:04:12;;;;;;;1.67;1.05;;;10.90;99.90;;;;;;9971443;28;20026;-76
2023/11/03 01:09:03;;;;;;;2.17;0.60;;;10.90;99.90;;;;;;9970591;28;20034;-77
2023/11/03 01:13:54;;;;;;;1.42;0.60;;;10.80;99.90;;;;;;9966529;28;20027;-77
2023/11/03 01:18:45;;;;;;;2.85;1.50;;;10.80;99.90;;;;;;9959173;28;20023;-76
2023/11/03 01:23:36;;;;;;;3.67;1.15;;;10.60;99.90;;;;;;9975564;28;20493;-78
2023/11/03 01:28:26;;;;;;;3.70;1.27;;;10.70;99.90;;;;;;9976465;28;20042;-77
2023/11/03 01:33:17;;;;;;;1.17;1.00;;;10.60;99.90;;;;;;9968282;28;20038;-76
2023/11/03 01:38:08;;;;;;;1.30;0.90;;;10.60;99.90;;;;;;9965966;28;20026;-77
2023/11/03 01:42:58;;;;;;;3.67;0.85;;;10.70;99.90;;;;;;9957694;28;20072;-81
2023/11/03 01:47:49;;;;;;;1.85;1.02;;;10.70;99.90;;;;;;9953815;28;20487;-78
2023/11/03 01:52:43;;;;;;;1.95;1.08;;;10.60;99.90;;;;;;9973657;28;20129;-77
2023/11/03 01:57:34;;;;;;;4.45;1.10;;;10.60;99.90;;;;;;9966349;28;20085;-77
2023/11/03 02:02:27;;;;;;;2.40;0.88;;;10.60;99.90;;;;;;9969639;28;20045;-80
2023/11/03 02:07:18;;;;;;;1.98;0.80;;;10.60;99.90;;;;;;9966037;28;20537;-80
2023/11/03 02:12:12;;;;;;;1.55;0.80;;;10.70;99.90;;;;;;9967230;28;20030;-78
2023/11/03 02:17:03;;;;;;;1.98;0.70;;;10.60;99.90;;;;;;9954758;28;20068;-77
2023/11/03 02:21:53;;;;;;;2.55;0.68;;;10.70;99.90;;;;;;9962269;28;20031;-78
2023/11/03 02:26:44;;;;;;;1.75;0.80;;;10.70;99.90;;;;;;9985408;28;20046;-78
2023/11/03 02:31:35;;;;;;;1.77;0.73;;;10.80;99.90;;;;;;9979363;28;20049;-77
2023/11/03 02:36:26;;;;;;;0.88;0.77;;;10.70;99.90;;;;;;9983980;28;20031;-82
2023/11/03 02:41:22;;;;;;;1.27;0.57;;;10.70;99.90;;;;;;10025581;23;20136;-80
2023/11/03 02:46:15;;;;;;;1.13;0.45;;;10.70;99.90;;;;;;10025512;28;20476;-74
2023/11/03 02:51:06;;;;;;;1.17;0.50;;;10.70;99.90;;;;;;10005233;28;20117;-75
2023/11/03 02:55:56;;;;;;;1.83;0.57;;;10.70;99.90;;;;;;10023065;28;20133;-75
2023/11/03 03:00:47;;;;;;;1.08;0.65;;;10.60;99.90;;;;;;10019649;28;20037;-75
2023/11/03 03:05:38;;;;;;;0.95;0.70;;;10.60;99.90;;;;;;10020877;28;20092;-75
2023/11/03 03:10:31;;;;;;;2.50;0.60;;;10.60;99.90;;;;;;10021668;28;20030;-78
2023/11/03 03:15:22;;;;;;;1.00;0.60;;;10.50;99.90;;;;;;10006648;28;20026;-78
2023/11/03 03:20:13;;;;;;;1.70;0.70;;;10.60;99.90;;;;;;10007213;28;20026;-76
2023/11/03 03:25:05;;;;;;;3.85;0.75;;;10.50;99.90;;;;;;10020784;28;20447;-76
2023/11/03 03:29:55;;;;;;;2.55;0.55;;;10.30;99.90;;;;;;10020736;28;20034;-75
2023/11/03 03:34:46;;;;;;;2.65;0.70;;;10.30;99.90;;;;;;10019049;28;20025;-74
2023/11/03 03:39:38;;;;;;;2.40;0.70;;;10.40;99.90;;;;;;10020006;28;20680;-78
2023/11/03 03:44:28;;;;;;;2.58;0.50;;;10.40;99.90;;;;;;10001936;28;20033;-76
2023/11/03 03:49:19;;;;;;;1.67;0.57;;;10.30;99.90;;;;;;10023301;28;20029;-77
2023/11/03 03:54:10;;;;;;;3.58;0.73;;;10.30;99.90;;;;;;10003520;28;20041;-76
2023/11/03 03:59:01;;;;;;;1.23;0.68;;;10.40;99.90;;;;;;10021773;28;20022;-76
2023/11/03 04:03:52;;;;;;;1.00;0.52;;;10.50;99.90;;;;;;10008787;28;20053;-73
2023/11/03 04:08:42;;;;;;;1.15;0.47;;;10.40;99.90;;;;;;10009232;28;20033;-77
2023/11/03 04:13:34;;;;;;;1.95;0.70;;;10.50;99.90;;;;;;10012163;28;20658;-76
2023/11/03 04:18:25;;;;;;;1.92;0.65;;;10.40;99.90;;;;;;10014181;28;20114;-76
2023/11/03 04:23:15;;;;;;;2.17;0.90;;;10.50;99.90;;;;;;10014566;28;20116;-77
2023/11/03 04:28:06;;;;;;;1.88;0.80;;;10.40;99.90;;;;;;10019030;28;20076;-75
2023/11/03 04:32:57;;;;;;;3.63;0.50;;;10.30;99.90;;;;;;10016540;28;20018;-75
2023/11/03 04:37:49;;;;;;;0.82;0.55;;;10.30;99.90;;;;;;10017675;28;20025;-75
2023/11/03 04:42:40;;;;;;;1.95;0.70;;;10.40;99.90;;;;;;10008446;28;20415;-76
2023/11/03 04:47:31;;;;;;;5.60;0.77;;;10.40;99.90;;;;;;10027635;28;20037;-75
2023/11/03 04:52:21;;;;;;;2.60;1.00;;;10.40;99.90;;;;;;10018441;28;20041;-76
2023/11/03 04:57:12;;;;;;;0.70;0.60;;;10.40;99.90;;;;;;10016600;28;20787;-78
2023/11/03 05:02:05;;;;;;;1.83;0.73;;;10.50;99.90;;;;;;10014771;28;20018;-75
2023/11/03 05:06:56;;;;;;;1.30;0.70;;;10.50;99.90;;;;;;10004120;28;20030;-77
2023/11/03 05:11:47;;;;;;;1.63;0.73;;;10.50;99.90;;;;;;10017943;28;20136;-79
2023/11/03 05:16:38;;;;;;;4.22;0.77;;;10.40;99.90;;;;;;10016470;28;20032;-77
2023/11/03 05:21:29;;;;;;;2.40;1.08;;;10.40;99.90;;;;;;9999286;28;20431;-72
2023/11/03 05:26:19;;;;;;;1.60;0.63;;;10.30;99.90;;;;;;9994561;28;20029;-72
2023/11/03 05:31:12;;;;;;;3.63;0.88;;;10.30;99.90;;;;;;9998494;28;20107;-75
2023/11/03 05:36:03;;;;;;;2.35;0.95;;;10.40;99.90;;;;;;10015155;28;20018;-75
2023/11/03 05:40:57;;;;;;;0.95;0.70;;;10.50;99.90;;;;;;10013556;28;20057;-78
2023/11/03 05:45:47;;;;;;;1.73;0.82;;;10.40;99.90;;;;;;10016276;28;20108;-76
2023/11/03 05:50:38;;;;;;;2.50;1.10;;;10.40;99.90;;;;;;10016744;28;20125;-83
2023/11/03 05:55:29;;;;;;;1.88;0.40;;;10.40;99.90;;;;;;9998742;28;20495;-78
2023/11/03 06:00:21;;;;;;;2.75;0.55;;;10.40;99.90;;;;;;9996680;28;20033;-73
2023/11/03 06:05:12;;;;;;;2.30;0.40;;;10.50;99.90;;;;;;9997654;28;20034;-73
2023/11/03 06:10:03;;;;;;;2.42;0.57;;;10.50;99.90;;;;;;10015470;28;20052;-72
2023/11/03 06:14:54;;;;;;;1.25;0.73;;;10.50;99.90;;;;;;10015765;28;20025;-71
2023/11/03 06:19:45;;;;;;;1.08;0.47;;;10.50;99.90;;;;;;10012945;28;20455;-71
2023/11/03 06:24:36;;;;;;;1.40;0.50;;;10.50;99.90;;;;;;9988119;28;20379;-80
2023/11/03 06:29:27;;;;;;;2.08;1.10;;;10.60;99.90;;;;;;10014265;28;20077;-71
2023/11/03 06:34:17;;;;;;;2.90;0.57;;;10.50;99.90;;;;;;10010096;28;20022;-69
2023/11/03 06:39:08;;;;;;;2.05;0.70;;;10.50;99.90;;;;;;10014014;28;20512;-69
2023/11/03 06:43:58;;;;;;;1.48;0.88;;;10.50;99.90;;;;;;10014543;28;20518;-68
2023/11/03 06:48:50;;;;;;;1.05;0.60;;;10.50;99.90;;;;;;10011523;28;20037;-71
2023/11/03 06:53:40;;;;;;;1.90;0.77;;;10.40;99.90;;;;;;10014294;28;20101;-71
2023/11/03 06:58:34;;;;;;;0.80;0.47;;;10.40;99.90;;;;;;9999854;28;20472;-71
2023/11/03 07:03:25;;;;;;;2.97;0.60;;;10.40;99.90;;;;;;10013843;28;20415;-72
2023/11/03 07:08:16;;;;;;;2.10;0.82;;;10.40;99.90;;;;;;10015888;28;20121;-71
2023/11/03 07:13:07;;;;;;;3.28;0.77;;;10.40;99.90;;;;;;10013557;28;20548;-71
2023/11/03 07:18:01;;;;;;;2.70;0.77;;;10.40;99.90;;;;;;10010981;28;20480;-72
2023/11/03 07:22:51;;;;;;;1.63;0.90;;;10.40;99.90;;;;;;10013570;28;20110;-71
2023/11/03 07:27:42;;;;;;;1.10;0.68;;;10.50;99.90;;;;;;10021326;28;20606;-73
2023/11/03 07:32:33;;;;;;;3.67;1.08;;;10.50;99.90;;;;;;10020517;28;20026;-72
2023/11/03 07:37:25;;;;;;;1.85;1.10;;;10.50;99.90;;;;;;10014361;28;20073;-77
2023/11/03 07:42:16;;;;;;;1.92;0.57;;;10.40;99.90;;;;;;10017007;28;20344;-75
2023/11/03 07:47:08;;;;;;;3.92;1.10;;;10.40;99.90;;;;;;10019532;28;20766;-77
2023/11/03 07:51:59;;;;;;;3.20;1.20;;;10.50;99.90;;;;;;10020785;28;20029;-75
2023/11/03 07:56:50;;;;;;;2.15;1.00;;;10.50;99.90;;;;;;10005303;28;20041;-77
2023/11/03 08:01:40;;;;;;;3.47;1.40;;;10.50;99.90;;;;;;10020152;28;20030;-76
2023/11/03 08:06:31;;;;;;;3.60;1.27;;;10.40;99.90;;;;;;10019300;28;20026;-76
2023/11/03 08:11:22;;;;;;;2.25;0.80;;;10.50;99.90;;;;;;10019364;28;20095;-76
2023/11/03 08:16:13;;;;;;;7.15;1.20;;;10.50;99.90;;;;;;10020260;28;20046;-76
2023/11/03 08:21:04;;;;;;;1.70;1.25;;;10.50;99.90;;;;;;10021360;28;20080;-73
2023/11/03 08:25:55;;;;;;;3.30;1.23;;;10.60;99.90;;;;;;10019981;28;20498;-73
2023/11/03 08:30:47;;;;;;;1.65;0.80;;;10.60;99.90;;;;;;10022850;28;20029;-72
2023/11/03 08:35:38;;;;;;;1.83;0.80;;;10.60;99.90;;;;;;10011354;28;20030;-73
2023/11/03 08:40:29;;;;;;;2.47;0.73;;;10.70;99.90;;;;;;10013814;28;20532;-73
2023/11/03 08:45:20;;;;;;;1.92;0.75;;;10.70;99.90;;;;;;10018805;28;20033;-76
2023/11/03 08:50:15;;;;;;;2.00;0.90;;;10.60;99.90;;;;;;10016614;28;20055;-77
2023/11/03 08:55:11;;;;;;;3.28;0.95;;;10.70;99.90;;;;;;10015150;28;20037;-75
2023/11/03 09:00:08;;;;;;;;;;;10.70;99.90;;;;;;10014783;28;20037;-76
2023/11/03 09:05:00;;;;;;;167.18;76.22;;;10.80;99.90;;;;;;10013713;28;19909;-77
2023/11/03 09:09:51;;;;;;;6.30;3.42;;;10.80;99.90;;;;;;10015095;28;20041;-79
2023/11/03 09:14:41;;;;;;;33.38;15.02;;;10.80;99.90;;;;;;10015619;28;20049;-79
2023/11/03 09:19:34;;;;;;;47.90;18.67;;;10.90;99.90;;;;;;10014362;28;20032;-74
2023/11/03 09:24:27;;;;;;;3.30;1.00;;;11.00;99.90;;;;;;9993983;28;20026;-77
2023/11/03 09:29:19;;;;;;;2.00;0.63;;;11.00;99.90;;;;;;10017686;28;20041;-77
2023/11/03 09:34:11;;;;;;;2.13;1.05;;;11.00;99.90;;;;;;10014816;28;20116;-74
2023/11/03 09:39:04;;;;;;;1.15;0.60;;;11.00;99.90;;;;;;10013309;28;20038;-76
2023/11/03 09:43:55;;;;;;;1.50;0.75;;;11.00;99.90;;;;;;9995107;28;20025;-77
2023/11/03 09:48:46;;;;;;;3.25;0.70;;;11.10;99.90;;;;;;10016172;28;20076;-78
2023/11/03 09:53:39;;;;;;;1.80;0.70;;;11.10;99.90;;;;;;10012246;28;20049;-72
2023/11/03 09:58:32;;;;;;;4.75;1.17;;;11.00;99.90;;;;;;10015101;28;20030;-73
2023/11/03 10:03:23;;;;;;;27.92;11.68;;;11.10;99.90;;;;;;10015467;28;20022;-70
2023/11/03 10:08:18;;;;;;;155.90;67.10;;;11.20;99.90;;;;;;10015875;28;20112;-68
2023/11/03 10:13:12;;;;;;;5.47;1.60;;;11.00;99.90;;;;;;10015874;28;20022;-69
2023/11/03 10:18:03;;;;;;;1.25;0.63;;;11.10;99.90;;;;;;10011048;28;20359;-71
2023/11/03 10:22:55;;;;;;;1.83;0.63;;;11.10;99.90;;;;;;10006084;28;20100;-72
2023/11/03 10:27:48;;;;;;;1.98;0.63;;;11.20;99.90;;;;;;10013917;28;20696;-75
2023/11/03 10:32:38;;;;;;;1.20;0.50;;;11.10;99.90;;;;;;9999229;28;20660;-71
2023/11/03 10:37:31;;;;;;;0.73;0.52;;;11.10;99.90;;;;;;10006477;28;20026;-72
2023/11/03 10:42:24;;;;;;;0.68;0.52;;;11.10;99.90;;;;;;10014215;28;20626;-71
2023/11/03 10:47:22;;;;;;;0.80;0.57;;;11.20;99.90;;;;;;10015124;28;20122;-72
2023/11/03 10:52:12;;;;;;;0.82;0.52;;;11.30;99.90;;;;;;10014985;28;20431;-73
2023/11/03 10:57:05;;;;;;;1.75;0.60;;;11.30;99.90;;;;;;10020039;28;20022;-71
2023/11/03 11:02:26;;;;;;;1.63;0.50;;;11.30;99.90;;;;;;10022020;28;20036;-76
2023/11/03 11:07:19;;;;;;;1.38;1.27;;;11.30;99.90;;;;;;10021820;28;20029;-70
2023/11/03 11:12:10;;;;;;;2.70;0.65;;;11.30;99.90;;;;;;10021961;28;20430;-76
2023/11/03 11:17:01;;;;;;;1.23;0.60;;;11.30;99.90;;;;;;10021813;28;20558;-71
2023/11/03 11:21:53;;;;;;;1.88;0.90;;;11.20;99.90;;;;;;10019309;28;20022;-72
2023/11/03 11:26:44;;;;;;;2.30;1.33;;;11.30;99.90;;;;;;10019889;28;20046;-71
2023/11/03 11:31:39;;;;;;;1.23;0.60;;;11.40;99.90;;;;;;10002524;28;20033;-72
2023/11/03 11:36:32;;;;;;;1.10;0.43;;;11.40;99.90;;;;;;10018883;28;20072;-73
2023/11/03 11:41:25;;;;;;;2.25;0.80;;;11.40;99.90;;;;;;10002904;28;20042;-73
2023/11/03 11:46:16;;;;;;;2.20;1.35;;;11.50;99.90;;;;;;10019419;28;20030;-76
2023/11/03 11:51:07;;;;;;;1.08;0.60;;;11.60;99.90;;;;;;10024690;28;20120;-74
2023/11/03 11:55:58;;;;;;;1.80;0.60;;;11.60;99.90;;;;;;10002203;28;20418;-72
2023/11/03 12:00:49;;;;;;;1.67;0.68;;;11.60;99.90;;;;;;10020481;28;20148;-73
2023/11/03 12:05:40;;;;;;;4.28;0.75;;;11.60;99.90;;;;;;10016432;28;20026;-73
2023/11/03 12:10:33;;;;;;;0.50;0.50;;;11.60;99.90;;;;;;10019707;28;20037;-72
2023/11/03 12:15:23;;;;;;;0.93;0.50;;;11.70;99.90;;;;;;10002787;28;20054;-74
2023/11/03 12:20:14;;;;;;;1.85;0.73;;;11.70;99.90;;;;;;10002712;28;20022;-75
2023/11/03 12:25:06;;;;;;;1.35;0.52;;;11.70;99.90;;;;;;10014677;28;20030;-73
2023/11/03 12:30:03;;;;;;;3.13;0.60;;;11.70;99.90;;;;;;10022986;28;20036;-74
2023/11/03 12:34:55;;;;;;;2.15;0.60;;;11.70;99.90;;;;;;10017283;28;20029;-72
2023/11/03 12:39:51;;;;;;;1.48;0.82;;;11.80;99.90;;;;;;10018511;28;20069;-73
2023/11/03 12:44:49;;;;;;;1.10;0.70;;;11.60;99.90;;;;;;10026452;28;20080;-71
2023/11/03 12:49:40;;;;;;;2.15;0.73;;;11.80;99.90;;;;;;10015973;28;20029;-72
2023/11/03 12:54:32;;;;;;;3.92;0.40;;;11.90;99.90;;;;;;10000479;28;20026;-71
2023/11/03 12:59:24;;;;;;;1.35;0.43;;;11.90;99.90;;;;;;10000611;28;20427;-71
2023/11/03 13:04:23;;;;;;;3.30;0.80;;;11.80;99.90;;;;;;10017775;28;20025;-74
2023/11/03 13:09:16;;;;;;;1.17;0.57;;;11.80;99.90;;;;;;10012315;28;20042;-76
2023/11/03 13:14:08;;;;;;;1.98;0.63;;;11.80;99.90;;;;;;10005504;28;20033;-76
2023/11/03 13:18:59;;;;;;;2.67;1.05;;;11.90;99.90;;;;;;10014650;28;20070;-75
2023/11/03 13:23:51;;;;;;;3.42;0.93;;;12.00;99.90;;;;;;10010381;28;20041;-75
2023/11/03 13:28:41;;;;;;;4.13;0.60;;;11.90;99.90;;;;;;10019762;28;20042;-77
2023/11/03 13:33:32;;;;;;;1.50;0.52;;;11.90;99.90;;;;;;10016489;28;20075;-74
2023/11/03 13:38:24;;;;;;;3.72;0.88;;;11.90;99.90;;;;;;10013657;28;20028;-75
2023/11/03 13:43:14;;;;;;;3.83;1.48;;;11.90;99.90;;;;;;10013964;28;20041;-76
2023/11/03 13:48:07;;;;;;;3.78;0.70;;;11.80;99.90;;;;;;10017549;28;20037;-78
2023/11/03 13:52:59;;;;;;;1.98;0.95;;;11.80;99.90;;;;;;10017758;28;20053;-78
2023/11/03 13:57:51;;;;;;;2.65;1.08;;;11.90;99.90;;;;;;10019630;28;20518;-78
2023/11/03 14:02:41;;;;;;;2.97;1.10;;;11.90;99.90;;;;;;10016469;28;20022;-79
2023/11/03 14:07:32;;;;;;;2.33;0.90;;;11.80;99.90;;;;;;9990769;28;20553;-77
2023/11/03 14:12:25;;;;;;;2.25;0.90;;;11.90;99.90;;;;;;9997657;28;20030;-77
2023/11/03 14:17:16;;;;;;;4.93;0.77;;;11.90;99.90;;;;;;10016145;28;20026;-74
2023/11/03 14:22:07;;;;;;;1.40;0.55;;;12.00;99.90;;;;;;10009296;28;20120;-76
2023/11/03 14:26:57;;;;;;;0.95;0.52;;;11.80;99.90;;;;;;10015831;28;20030;-76
2023/11/03 14:31:48;;;;;;;2.53;0.90;;;11.90;99.90;;;;;;10021310;28;20034;-75
2023/11/03 14:36:42;;;;;;;2.70;1.00;;;12.00;99.90;;;;;;10022345;28;20022;-75
2023/11/03 14:41:33;;;;;;;2.25;0.93;;;12.10;99.90;;;;;;10001257;28;20104;-78
2023/11/03 14:46:24;;;;;;;1.50;0.70;;;12.10;99.90;;;;;;10022549;28;20022;-77
2023/11/03 14:51:15;;;;;;;1.48;0.60;;;12.20;99.90;;;;;;10005018;28;20038;-76
2023/11/03 14:56:07;;;;;;;4.45;0.68;;;12.20;99.90;;;;;;10022310;28;20535;-77
2023/11/03 15:00:57;;;;;;;3.85;1.33;;;12.20;99.90;;;;;;10012972;28;20026;-74
2023/11/03 15:05:48;;;;;;;4.18;0.68;;;12.20;99.90;;;;;;10021724;28;20102;-75
2023/11/03 15:10:39;;;;;;;1.52;0.55;;;12.30;99.90;;;;;;10021906;28;20041;-76
2023/11/03 15:15:32;;;;;;;2.40;0.52;;;12.20;99.90;;;;;;10021537;28;20022;-77
2023/11/03 15:20:23;;;;;;;2.13;0.65;;;12.20;99.90;;;;;;10006608;28;20610;-75
2023/11/03 15:25:16;;;;;;;2.45;0.68;;;12.10;99.90;;;;;;10017194;28;20029;-76
2023/11/03 15:30:08;;;;;;;2.33;0.60;;;12.10;99.90;;;;;;10018863;28;20123;-75
2023/11/03 15:34:59;;;;;;;1.58;0.68;;;12.00;99.90;;;;;;10016891;28;20105;-75
2023/11/03 15:39:50;;;;;;;1.35;0.82;;;12.00;99.90;;;;;;10019905;28;20176;-75
2023/11/03 15:44:41;;;;;;;2.10;1.42;;;12.00;99.90;;;;;;10020510;28;20030;-74
2023/11/03 15:49:32;;;;;;;0.98;0.65;;;12.10;99.90;;;;;;10020777;28;20171;-73
2023/11/03 15:54:23;;;;;;;4.15;1.65;;;12.10;99.90;;;;;;10017495;28;20034;-74
2023/11/03 15:59:14;;;;;;;4.05;0.95;;;12.00;99.90;;;;;;10019515;28;20030;-74
2023/11/03 16:04:05;;;;;;;2.00;1.25;;;12.00;99.90;;;;;;10022890;28;20032;-74
2023/11/03 16:08:57;;;;;;;4.57;1.52;;;12.00;99.90;;;;;;10020017;28;20038;-76
2023/11/03 16:13:48;;;;;;;4.35;1.10;;;12.00;99.90;;;;;;10020027;28;20018;-73
2023/11/03 16:18:38;;;;;;;3.55;1.27;;;11.90;99.90;;;;;;10019085;28;20029;-74
2023/11/03 16:23:29;;;;;;;99.63;42.20;;;11.90;99.90;;;;;;9997365;28;20029;-72
2023/11/03 16:28:20;;;;;;;43.80;17.33;;;12.00;99.90;;;;;;10019198;28;20128;-72
2023/11/03 16:33:11;;;;;;;5.88;2.80;;;11.90;99.90;;;;;;10013866;28;20034;-72
2023/11/03 16:38:02;;;;;;;4.93;2.08;;;11.80;99.90;;;;;;10018294;28;20018;-72
2023/11/03 16:42:52;;;;;;;5.07;2.17;;;11.80;99.90;;;;;;10020320;28;20056;-71
2023/11/03 16:47:43;;;;;;;2.97;1.75;;;11.80;99.90;;;;;;10018634;28;20623;-71
2023/11/03 16:52:37;;;;;;;5.32;1.77;;;11.90;99.90;;;;;;10017793;28;20030;-71
2023/11/03 16:57:27;;;;;;;3.88;1.75;;;11.90;99.90;;;;;;10018327;28;20026;-70
2023/11/03 17:02:18;;;;;;;4.13;1.58;;;11.80;99.90;;;;;;10017571;28;20030;-71
2023/11/03 17:07:09;;;;;;;3.25;1.63;;;11.80;99.90;;;;;;10014559;28;20048;-71
2023/11/03 17:12:00;;;;;;;1.85;1.13;;;11.70;99.90;;;;;;10014544;28;20137;-71
2023/11/03 17:16:51;;;;;;;3.38;1.38;;;11.70;99.90;;;;;;10004352;28;20022;-70
2023/11/03 17:21:43;;;;;;;3.13;1.60;;;11.60;99.90;;;;;;10012068;28;20026;-69
2023/11/03 17:26:34;;;;;;;5.47;1.95;;;11.70;99.90;;;;;;10012645;28;20031;-70
2023/11/03 17:31:25;;;;;;;3.28;1.80;;;11.60;99.90;;;;;;10014892;28;20038;-69
2023/11/03 17:36:15;;;;;;;4.20;1.55;;;11.50;99.90;;;;;;10015958;28;20076;-71
2023/11/03 17:41:06;;;;;;;4.30;1.65;;;11.40;99.90;;;;;;10020445;28;20195;-70
2023/11/03 17:45:58;;;;;;;4.18;1.98;;;11.50;99.90;;;;;;10015859;28;20498;-71
2023/11/03 17:50:49;;;;;;;3.20;2.10;;;11.40;99.90;;;;;;9982321;28;20037;-71
2023/11/03 17:55:40;;;;;;;1.73;1.27;;;11.40;99.90;;;;;;10015600;28;20024;-70
2023/11/03 18:00:30;;;;;;;4.95;1.60;;;11.40;99.90;;;;;;10016149;28;20038;-70
2023/11/03 18:05:21;;;;;;;3.22;1.73;;;11.40;99.90;;;;;;10014544;28;20120;-70
2023/11/03 18:10:12;;;;;;;4.25;1.85;;;11.30;99.90;;;;;;10015650;28;20069;-69
2023/11/03 18:15:08;;;;;;;3.60;1.67;;;11.30;99.90;;;;;;10016526;28;20022;-70
2023/11/03 18:20:00;;;;;;;3.08;1.63;;;11.30;99.90;;;;;;10016071;28;20443;-70
2023/11/03 18:24:54;;;;;;;4.60;1.52;;;11.30;99.90;;;;;;10018448;28;20014;-70
2023/11/03 18:29:45;;;;;;;7.28;2.45;;;11.20;99.90;;;;;;10015519;28;20084;-70
2023/11/03 18:34:40;;;;;;;8.10;2.70;;;11.10;99.90;;;;;;10010954;28;20097;-72
2023/11/03 18:39:32;;;;;;;4.70;1.75;;;11.10;99.90;;;;;;9976801;28;20428;-70
2023/11/03 18:44:24;;;;;;;4.15;1.95;;;11.00;99.90;;;;;;10004111;28;20041;-71
2023/11/03 18:49:15;;;;;;;5.18;2.50;;;11.00;99.90;;;;;;9995963;28;20041;-70
2023/11/03 18:54:07;;;;;;;5.45;2.70;;;11.00;99.90;;;;;;10005503;28;20508;-70
2023/11/03 18:58:58;;;;;;;4.53;2.55;;;11.00;99.90;;;;;;10008499;28;20317;-71
2023/11/03 19:03:50;;;;;;;6.35;3.28;;;11.00;99.90;;;;;;10020931;28;20017;-71
2023/11/03 19:08:41;;;;;;;4.32;3.10;;;11.00;99.90;;;;;;10013758;28;20033;-70
2023/11/03 19:13:31;;;;;;;5.32;3.30;;;11.00;99.90;;;;;;10014203;28;20084;-71
2023/11/03 19:18:22;;;;;;;6.93;3.33;;;10.90;99.90;;;;;;10029866;28;20092;-70
2023/11/03 19:23:14;;;;;;;4.18;3.03;;;10.80;99.90;;;;;;10017367;28;20039;-70
2023/11/03 19:28:07;;;;;;;4.65;2.65;;;10.80;99.90;;;;;;10021831;28;20172;-71
2023/11/03 19:32:58;;;;;;;5.13;2.80;;;10.70;99.90;;;;;;10022750;28;20026;-70
2023/11/03 19:37:48;;;;;;;4.97;2.92;;;10.60;99.90;;;;;;10000817;28;20030;-69
2023/11/03 19:42:41;;;;;;;5.15;2.78;;;10.70;99.90;;;;;;10002852;28;20534;-71
2023/11/03 19:47:32;;;;;;;7.55;2.92;;;10.60;99.90;;;;;;10026936;28;20192;-70
2023/11/03 19:52:22;;;;;;;4.72;3.17;;;10.70;99.90;;;;;;10002575;28;20507;-70
2023/11/03 19:57:13;;;;;;;4.03;2.85;;;10.60;99.90;;;;;;10020320;28;20567;-71
2023/11/03 20:02:04;;;;;;;6.03;3.08;;;10.60;99.90;;;;;;10015156;28;20102;-70
2023/11/03 20:06:55;;;;;;;4.43;2.47;;;10.50;99.90;;;;;;10001776;28;20022;-70
2023/11/03 20:11:46;;;;;;;6.80;3.78;;;10.50;99.90;;;;;;10001297;28;20045;-71
2023/11/03 20:16:37;;;;;;;6.28;2.88;;;10.50;99.90;;;;;;10019225;28;20018;-71
2023/11/03 20:21:29;;;;;;;3.80;2.50;;;10.40;99.90;;;;;;10019205;28;20494;-70
2023/11/03 20:26:21;;;;;;;4.38;2.45;;;10.40;99.90;;;;;;10015403;28;20025;-73
2023/11/03 20:31:12;;;;;;;4.43;2.15;;;10.50;99.90;;;;;;10018662;28;20045;-71
2023/11/03 20:36:03;;;;;;;3.67;2.03;;;10.30;99.90;;;;;;10018447;28;20022;-72
2023/11/03 20:40:55;;;;;;;3.72;1.98;;;10.20;99.90;;;;;;10018875;28;20550;-71
2023/11/03 20:45:47;;;;;;;5.55;2.58;;;10.20;99.90;;;;;;10019006;28;20109;-71
2023/11/03 20:50:39;;;;;;;4.57;2.95;;;10.20;99.90;;;;;;10018580;28;20048;-73
2023/11/03 20:55:30;;;;;;;3.92;2.08;;;10.20;99.90;;;;;;10009816;28;20026;-73
2023/11/03 21:00:21;;;;;;;6.18;2.13;;;10.10;99.90;;;;;;10015551;28;20022;-73
2023/11/03 21:05:12;;;;;;;6.45;2.15;;;10.10;99.90;;;;;;10017835;28;20394;-71
2023/11/03 21:10:06;;;;;;;3.42;1.98;;;10.00;99.90;;;;;;10017873;28;20499;-71
2023/11/03 21:14:56;;;;;;;4.40;2.38;;;9.90;99.90;;;;;;9999613;28;20030;-73
2023/11/03 21:19:47;;;;;;;4.95;2.40;;;10.00;99.90;;;;;;10018079;28;20029;-71
2023/11/03 21:24:39;;;;;;;4.60;2.42;;;10.00;99.90;;;;;;10015892;28;20490;-71
2023/11/03 21:29:31;;;;;;;2.72;1.73;;;9.80;99.90;;;;;;10012712;28;20055;-72
2023/11/03 21:34:22;;;;;;;3.85;2.40;;;9.80;99.90;;;;;;10016350;28;20026;-70
2023/11/03 21:39:15;;;;;;;3.78;2.00;;;9.80;99.90;;;;;;10012930;28;20038;-71
2023/11/03 21:44:06;;;;;;;4.07;2.00;;;9.80;99.90;;;;;;10016425;28;20034;-73
2023/11/03 21:48:56;;;;;;;2.40;1.60;;;9.70;99.90;;;;;;10011395;28;20049;-73
2023/11/03 21:53:47;;;;;;;5.57;2.13;;;9.50;99.90;;;;;;10021157;28;20022;-72
2023/11/03 21:58:42;;;;;;;3.97;2.00;;;9.60;99.90;;;;;;10016342;28;20022;-70
2023/11/03 22:03:33;;;;;;;4.60;2.40;;;9.60;99.90;;;;;;10015496;28;20014;-71
2023/11/03 22:08:23;;;;;;;3.95;2.00;;;9.60;99.90;;;;;;9998266;28;20038;-71
2023/11/03 22:13:14;;;;;;;3.50;1.90;;;9.50;99.90;;;;;;9997656;28;20036;-71
2023/11/03 22:18:05;;;;;;;4.15;2.50;;;9.40;99.90;;;;;;10016294;28;20037;-72
2023/11/03 22:22:59;;;;;;;3.33;2.03;;;9.40;99.90;;;;;;10014197;28;20026;-72
2023/11/03 22:27:49;;;;;;;3.53;2.13;;;9.50;99.90;;;;;;10014695;28;20053;-71
2023/11/03 22:32:40;;;;;;;4.32;2.40;;;9.50;99.90;;;;;;10015108;28;20066;-73
2023/11/03 22:37:31;;;;;;;3.30;1.63;;;9.50;99.90;;;;;;10015616;28;20045;-74
2023/11/03 22:42:22;;;;;;;2.38;2.17;;;9.40;99.90;;;;;;10014722;28;20519;-72
2023/11/03 22:47:12;;;;;;;1.88;1.60;;;9.50;99.90;;;;;;9998379;28;20029;-71
2023/11/03 22:52:03;;;;;;;1.52;1.17;;;9.50;99.90;;;;;;10012292;28;20037;-73
2023/11/03 22:56:54;;;;;;;3.38;2.03;;;9.50;99.90;;;;;;10020018;28;20024;-73
2023/11/03 23:01:45;;;;;;;3.15;1.48;;;9.50;99.90;;;;;;10020787;28;20488;-71
2023/11/03 23:06:36;;;;;;;3.15;1.35;;;9.40;99.90;;;;;;9998448;28;20026;-71
2023/11/03 23:11:26;;;;;;;3.85;1.88;;;9.40;99.90;;;;;;10021758;28;20049;-72
2023/11/03 23:16:17;;;;;;;2.83;1.45;;;9.40;99.90;;;;;;10023774;28;20072;-73
2023/11/03 23:21:08;;;;;;;2.45;1.33;;;9.50;99.90;;;;;;10023495;28;20347;-72
2023/11/03 23:25:59;;;;;;;3.03;1.63;;;9.50;99.90;;;;;;10017157;28;20018;-72
2023/11/03 23:30:50;;;;;;;1.48;1.10;;;9.60;99.90;;;;;;10025286;28;20037;-70
2023/11/03 23:35:41;;;;;;;2.05;1.42;;;9.50;99.90;;;;;;10020912;28;20029;-70
2023/11/03 23:40:32;;;;;;;2.38;1.20;;;9.50;99.90;;;;;;10020725;28;20058;-71
2023/11/03 23:45:22;;;;;;;2.33;1.15;;;9.60;99.90;;;;;;10021083;28;20026;-70
2023/11/03 23:50:13;;;;;;;2.47;1.30;;;9.60;99.90;;;;;;10021206;28;20124;-71
2023/11/03 23:55:05;;;;;;;1.23;0.90;;;9.60;99.90;;;;;;10020574;28;20056;-70
2023/11/03 23:59:55;;;;;;;1.88;1.30;;;9.60;99.90;;;;;;10017834;28;20022;-70
